Portada
METAR-TAF:

METAR-TAF

Aeropuertos :

Aeropuerto de Andorra-La Seu

Seo de Urgel, España

latitud: 42-20-29N, longitud: 001-24-17E, altitud: 802 m

Observación

El informe se hizo hace 11 horas y 8 minutos, a las 16:00 UTC
Viento 8 kt del noroeste, variando entre oeste y norte
Temperatura 13°C
Humedad 41%
Presión 1021 hPa
Visibilidad 10 km o más
Nubes dispersas a una altura de 6400 ft

METAR: LESU 171600Z 31008KT 270V350 9999 SCT064 13/00 Q1021

Hora: 04:08 (03:08 UTC)

Pronóstico

El informe se hizo hace 1 hora y 8 minutos, a las 02:00 UTC
Pronóstico válido del 18 a las 03 UTC al 19 a las 03 UTC
Viento 3 kt con dirección variable
Visibilidad 10 km o más
Escasas nubes a una altura de 6000 ft

TAF: LESU 180200Z 1803/1903 VRB03KT 9999 FEW060 TX11/1814Z TNM05/1806Z

Observaciones y pronósticos meteorológicos de más de 4000 aeropuertos (mensajes METAR y TAF).

Los puntos amarillos y rojos representan las estaciones disponibles.

Ponga el ratón en el punto deseado para ver el nombre de la estación.

Haga clic para ver las observaciones y los pronósticos meteorológicos.

Para cambiar el mapa : haga clic en los botones verdes con una cruz de color negro para hacer un zoom, en el botón verde con un guión para alejar o en las flechas verdes para mapas adyacentes.


METAR-TAF: